Airfield :
LOGIN :

Register | Disclaimer

   EN    FR    IT 

 










Legend :    VFR   Marginal VFR   IFR   Intensive IFR   Very Intensive IFR
Visi :
Ceiling :
>= 8 km
>= 3000ft
5 to 8 km
1000 to 3000 ft
1500m to 5 km
500 to 1000 ft
800 to 1500m
200 to 500 ft
< 800m
< 200 ft
Symbols :   Thunderstorms  Fog  Heavy snow  Heavy precipitations  Wind > 20 kt
SIGMETs :     Misc.  Thunderstorms  Icing  Turbulence  Mountain Waves  Volcanic Ashes







- Airport Elevation : 459 ft
- IATA code : CER
- Download approach charts


LFRC - Cherbourg / Maupertus

CURRENT METAR :
  • 151000Z AUTO 34016G29KT 300V010 9999 BKN022 OVC029 06/02 Q0998 TEMPO 2000 TSRAGS BKN020CB

EXPIRED METARs :
  • 150930Z AUTO 34017G29KT 300V010 9999 BKN025 BKN034 06/01 Q0997 TEMPO 2000 TSRAGS BKN020CB
  • 150900Z AUTO 33017G30KT 290V360 9999 BKN023 OVC037 07/02 Q0996 TEMPO 2000 TSRAGS BKN020CB
  • 150830Z AUTO 31020G30KT 280V340 9999 BKN023 BKN039 OVC046 07/03 Q0995 TEMPO 2000 TSRAGS BKN020CB
  • 150800Z AUTO 31019KT 9999 BKN024/// BKN030/// BKN039/// ///TCU 08/03 Q0994 TEMPO 2000 TSRAGS BKN020CB BECMG 35020G40KT
  • 150730Z AUTO 30022G32KT 9999 FEW028 BKN035 BKN050 08/03 Q0994 TEMPO 2000 TSRAGS BKN020CB

TAF TAF LFRC
Valid from the 15 at 09:00 until the 15 at 18:00 UTC


150800Z 1509/1518 30020G35KT 9999 BKN030
TEMPO 1509/1512 4000 SHRAGS BKN020CB
PROB40
TEMPO 1509/1512 2000 TSRAGS BKN015
BECMG 1509/1511 35020G30KT
PROB30
TEMPO 1512/1515 5000 SHRA BKN020CB
No reported NOTAMs for that airfield.



MET'MAP, your aeronautical weather chart ! - Copyright ORBIFLY December 2007 - Disclaimer

ORBIFLY MET'MAP TEAM :

Programming & Development : Alexandra Zaïnal
Concept & Development : Baudouin d'Aumeries
Co-Development & Prog : Marc-Olivier Méhu
Technical & hardware support : Manuel Goepfert

Contact : metmap@orbifly.com




SOURCES & CREDITS :

   NOAA